createdAt,value
2018-07-23T00:00:27.994Z,98.63
2018-07-23T00:01:27.922Z,98.24
2018-07-23T00:02:27.853Z,98.39
2018-07-23T00:03:27.791Z,98.19
2018-07-23T00:04:27.715Z,98.58
2018-07-23T00:05:27.645Z,99.99
2018-07-23T00:06:27.577Z,99.73
2018-07-23T00:07:27.508Z,99.44
2018-07-23T00:08:27.434Z,98.00
2018-07-23T00:09:27.369Z,98.19
2018-07-23T00:10:27.295Z,98.58
2018-07-23T00:11:27.229Z,98.29
2018-07-23T00:12:27.158Z,98.58
2018-07-23T00:13:27.089Z,98.87
2018-07-23T00:14:27.015Z,99.26
2018-07-23T00:15:26.947Z,99.54
2018-07-23T00:16:26.887Z,99.26
2018-07-23T00:17:26.804Z,98.87
2018-07-23T00:18:26.734Z,99.06
2018-07-23T00:19:26.666Z,99.83
2018-07-23T00:20:26.599Z,99.99
2018-07-23T00:21:26.528Z,99.99
2018-07-23T00:22:26.455Z,99.83
2018-07-23T00:23:26.385Z,99.99
2018-07-23T00:24:26.317Z,99.99
2018-07-23T00:25:26.262Z,99.99
2018-07-23T00:26:26.176Z,99.99
2018-07-23T00:27:26.106Z,99.99
2018-07-23T00:28:26.036Z,99.99
2018-07-23T00:29:25.964Z,99.99
2018-07-23T00:30:25.894Z,99.99
2018-07-23T00:31:25.833Z,99.99
2018-07-23T00:32:25.754Z,99.99
2018-07-23T00:33:25.694Z,99.99
2018-07-23T00:34:25.622Z,99.99
2018-07-23T00:35:25.546Z,99.99
2018-07-23T00:36:25.476Z,99.99
2018-07-23T00:37:25.405Z,99.99
2018-07-23T00:38:25.334Z,99.99
2018-07-23T00:39:25.264Z,99.99
2018-07-23T00:40:25.190Z,99.99
2018-07-23T00:41:25.132Z,99.99
2018-07-23T00:42:25.048Z,99.99
2018-07-23T00:43:24.982Z,99.99
2018-07-23T00:44:24.917Z,99.99
2018-07-23T00:45:24.839Z,99.99
2018-07-23T00:46:24.772Z,99.99
2018-07-23T00:47:24.699Z,99.99
2018-07-23T00:48:24.629Z,99.99
2018-07-23T00:49:24.557Z,99.99
2018-07-23T00:50:24.487Z,99.99
2018-07-23T00:51:24.418Z,99.99
2018-07-23T00:52:24.348Z,99.99
2018-07-23T00:53:24.278Z,99.99
2018-07-23T00:54:24.212Z,99.99
2018-07-23T00:55:24.137Z,99.99
2018-07-23T00:56:24.073Z,99.99
2018-07-23T00:57:23.995Z,99.99
2018-07-23T00:58:23.924Z,99.99
2018-07-23T00:59:23.866Z,99.99
2018-07-23T01:00:23.785Z,99.99
2018-07-23T01:01:23.711Z,99.99
2018-07-23T01:02:23.651Z,99.99
2018-07-23T01:03:23.576Z,99.99
2018-07-23T01:04:23.517Z,99.99
2018-07-23T01:05:23.433Z,99.99
2018-07-23T01:06:23.364Z,99.99
2018-07-23T01:07:23.297Z,99.99
2018-07-23T01:08:23.221Z,99.99
2018-07-23T01:09:23.148Z,99.99
2018-07-23T01:10:23.083Z,99.99
2018-07-23T01:11:23.015Z,99.99
2018-07-23T01:12:22.939Z,99.99
2018-07-23T01:13:22.867Z,99.99
2018-07-23T01:14:22.800Z,99.99
2018-07-23T01:15:22.728Z,99.99
2018-07-23T01:16:22.657Z,99.99
2018-07-23T01:17:22.589Z,99.99
2018-07-23T01:18:22.517Z,99.99
2018-07-23T01:19:22.444Z,99.99
2018-07-23T01:20:22.374Z,99.99
2018-07-23T01:21:22.306Z,99.99
2018-07-23T01:22:22.235Z,99.99
2018-07-23T01:23:22.163Z,99.99
2018-07-23T01:24:22.091Z,99.99
2018-07-23T01:25:22.021Z,99.99
2018-07-23T01:26:21.952Z,99.99
2018-07-23T01:27:21.881Z,99.99
2018-07-23T01:28:21.809Z,99.99
2018-07-23T01:29:21.738Z,99.99
2018-07-23T01:30:21.670Z,99.99
2018-07-23T01:31:21.599Z,99.99
2018-07-23T01:32:21.530Z,99.99
2018-07-23T01:33:21.499Z,99.99
2018-07-23T01:34:21.389Z,99.99
2018-07-23T01:35:21.318Z,99.99
2018-07-23T01:36:21.243Z,99.99
2018-07-23T01:37:21.174Z,99.99
2018-07-23T01:38:21.106Z,99.99
2018-07-23T01:39:21.031Z,99.99
2018-07-23T01:40:20.969Z,99.99
2018-07-23T01:41:20.891Z,99.99
2018-07-23T01:42:20.824Z,99.99
2018-07-23T01:43:20.752Z,99.99
2018-07-23T01:44:20.684Z,99.99
2018-07-23T01:45:20.605Z,99.99
2018-07-23T01:46:20.539Z,99.99
2018-07-23T01:47:20.468Z,99.99
2018-07-23T01:48:20.394Z,99.99
2018-07-23T01:49:20.324Z,99.99
2018-07-23T01:50:20.262Z,99.99
2018-07-23T01:51:20.185Z,99.99
2018-07-23T01:52:20.112Z,99.99
2018-07-23T01:53:20.042Z,99.99
2018-07-23T01:54:19.971Z,99.99
2018-07-23T01:55:19.899Z,99.99
2018-07-23T01:56:19.834Z,99.99
2018-07-23T01:57:19.760Z,99.99
2018-07-23T01:58:19.693Z,99.99
2018-07-23T01:59:19.620Z,99.99
2018-07-23T02:00:19.551Z,99.99
2018-07-23T02:01:19.476Z,99.99
2018-07-23T02:02:19.410Z,99.99
2018-07-23T02:03:19.332Z,99.99
2018-07-23T02:04:19.271Z,99.99
2018-07-23T02:05:19.192Z,99.99
2018-07-23T02:06:19.123Z,99.99
2018-07-23T02:07:19.051Z,99.99
2018-07-23T02:08:18.987Z,99.99
2018-07-23T02:09:18.916Z,99.99
2018-07-23T02:10:18.836Z,99.99
2018-07-23T02:11:18.767Z,99.99
2018-07-23T02:12:18.699Z,99.99
2018-07-23T02:13:18.628Z,99.99
2018-07-23T02:14:18.554Z,99.99
2018-07-23T02:15:18.489Z,99.99
2018-07-23T02:16:18.424Z,99.99
2018-07-23T02:17:18.342Z,99.99
2018-07-23T02:18:18.316Z,99.99
2018-07-23T02:19:18.202Z,99.99
2018-07-23T02:20:18.132Z,99.99
2018-07-23T02:21:18.096Z,99.99
2018-07-23T02:22:17.988Z,99.99
2018-07-23T02:23:17.921Z,99.99
2018-07-23T02:24:17.845Z,99.99
2018-07-23T02:25:17.775Z,99.99
2018-07-23T02:26:17.706Z,99.99
2018-07-23T02:27:17.638Z,99.99
2018-07-23T02:28:17.559Z,99.99
2018-07-23T02:29:17.500Z,99.99
2018-07-23T02:30:17.428Z,99.99
2018-07-23T02:31:17.362Z,99.99
2018-07-23T02:32:17.277Z,99.99
2018-07-23T02:33:17.206Z,99.99
2018-07-23T02:34:17.139Z,99.99
2018-07-23T02:35:17.069Z,99.99
2018-07-23T02:36:16.991Z,99.99
2018-07-23T02:37:16.930Z,99.99
2018-07-23T02:38:16.855Z,99.99
2018-07-23T02:39:16.784Z,99.99
2018-07-23T02:40:16.709Z,99.99
2018-07-23T02:41:16.644Z,99.99
2018-07-23T02:42:16.566Z,99.99
2018-07-23T02:43:16.496Z,99.99
2018-07-23T02:44:16.425Z,99.99
2018-07-23T02:45:16.354Z,99.99
2018-07-23T02:46:16.282Z,99.99
2018-07-23T02:47:16.215Z,99.99
2018-07-23T02:48:16.142Z,99.99
2018-07-23T02:49:16.070Z,99.99
2018-07-23T02:50:16.005Z,99.99
2018-07-23T02:51:15.933Z,99.99
2018-07-23T02:52:15.857Z,99.99
2018-07-23T02:53:15.786Z,99.99
2018-07-23T02:54:15.722Z,99.99
2018-07-23T02:55:15.654Z,99.99
2018-07-23T02:56:15.582Z,99.99
2018-07-23T02:57:15.497Z,99.99
2018-07-23T02:58:15.429Z,99.99
2018-07-23T02:59:15.359Z,99.99
2018-07-23T03:00:15.285Z,99.99
2018-07-23T03:01:15.259Z,99.99
2018-07-23T03:02:15.146Z,99.99
2018-07-23T03:03:15.075Z,99.99
2018-07-23T03:04:15.005Z,99.99
2018-07-23T03:05:14.927Z,99.99
2018-07-23T03:06:14.859Z,99.99
2018-07-23T03:07:14.793Z,99.99
2018-07-23T03:08:14.722Z,99.99
2018-07-23T03:09:14.652Z,99.99
2018-07-23T03:10:14.577Z,99.99
2018-07-23T03:11:14.505Z,99.99
2018-07-23T03:12:14.431Z,99.99
2018-07-23T03:13:14.375Z,99.99
2018-07-23T03:14:14.311Z,99.99
2018-07-23T03:15:14.220Z,99.99
2018-07-23T03:16:14.144Z,99.99
2018-07-23T03:17:14.085Z,99.99
2018-07-23T03:18:13.998Z,99.99
2018-07-23T03:19:13.940Z,99.99
2018-07-23T03:20:13.867Z,99.99
2018-07-23T03:21:13.788Z,99.99
2018-07-23T03:22:13.721Z,99.99
2018-07-23T03:23:13.652Z,99.99
2018-07-23T03:24:13.575Z,99.99
2018-07-23T03:25:13.502Z,99.99
2018-07-23T03:26:13.431Z,99.99
2018-07-23T03:27:13.372Z,99.99
2018-07-23T03:28:13.289Z,99.99
2018-07-23T03:29:13.219Z,99.99
2018-07-23T03:30:13.153Z,99.99
2018-07-23T03:31:13.075Z,99.99
2018-07-23T03:32:13.010Z,99.99
2018-07-23T03:33:12.931Z,99.99
2018-07-23T03:34:12.861Z,99.99
2018-07-23T03:35:12.794Z,99.99
2018-07-23T03:36:12.722Z,99.99
2018-07-23T03:37:12.647Z,99.99
2018-07-23T03:38:12.575Z,99.99
2018-07-23T03:39:12.516Z,99.99
2018-07-23T03:40:12.434Z,99.99
2018-07-23T03:41:12.369Z,99.99
2018-07-23T03:42:12.289Z,99.99
2018-07-23T03:43:12.212Z,99.99
2018-07-23T03:44:12.155Z,99.99
2018-07-23T03:45:12.079Z,99.99
2018-07-23T03:46:12.001Z,99.99
2018-07-23T03:47:11.932Z,99.99
2018-07-23T03:48:11.865Z,99.99
2018-07-23T03:49:11.789Z,99.99
2018-07-23T03:50:11.721Z,99.99
2018-07-23T03:51:11.652Z,99.99
2018-07-23T03:52:11.574Z,99.99
2018-07-23T03:53:11.506Z,99.99
2018-07-23T03:54:11.435Z,99.99
2018-07-23T03:55:11.375Z,99.99
2018-07-23T03:56:11.286Z,99.99
2018-07-23T03:57:11.218Z,99.99
2018-07-23T03:58:11.147Z,99.99
2018-07-23T03:59:11.077Z,99.99
2018-07-23T04:00:11.003Z,99.99
2018-07-23T04:01:10.929Z,99.99
2018-07-23T04:02:10.861Z,99.99
2018-07-23T04:03:10.792Z,99.99
2018-07-23T04:04:10.714Z,99.99
2018-07-23T04:05:10.647Z,99.99
2018-07-23T04:06:10.574Z,99.99
2018-07-23T04:07:10.502Z,99.99
2018-07-23T04:08:10.441Z,99.99
2018-07-23T04:09:10.358Z,99.99
2018-07-23T04:10:10.822Z,99.99
2018-07-23T04:11:10.221Z,99.99
2018-07-23T04:12:10.151Z,99.99
2018-07-23T04:13:10.072Z,99.99
2018-07-23T04:14:10.004Z,99.99
2018-07-23T04:15:09.953Z,99.99
2018-07-23T04:16:09.856Z,99.99
2018-07-23T04:17:09.785Z,99.99
2018-07-23T04:18:09.754Z,99.99
2018-07-23T04:19:09.645Z,99.99
2018-07-23T04:20:09.576Z,99.99
2018-07-23T04:21:09.507Z,99.99
2018-07-23T04:22:09.430Z,99.99
2018-07-23T04:23:09.362Z,99.99
2018-07-23T04:24:09.287Z,99.99
2018-07-23T04:25:09.215Z,99.99
2018-07-23T04:26:09.147Z,99.99
2018-07-23T04:27:09.075Z,99.99
2018-07-23T04:28:08.999Z,99.99
2018-07-23T04:29:08.930Z,99.99
2018-07-23T04:30:08.859Z,99.99
2018-07-23T04:31:08.787Z,99.99
2018-07-23T04:32:08.719Z,99.99
2018-07-23T04:33:08.644Z,99.99
2018-07-23T04:34:08.587Z,99.99
2018-07-23T04:35:08.503Z,99.99
2018-07-23T04:36:08.429Z,99.99
2018-07-23T04:37:08.355Z,99.99
2018-07-23T04:38:08.293Z,99.99
2018-07-23T04:39:08.213Z,99.99
2018-07-23T04:40:08.149Z,99.99
2018-07-23T04:41:08.074Z,99.99
2018-07-23T04:42:08.001Z,99.99
2018-07-23T04:43:07.927Z,99.99
2018-07-23T04:44:07.863Z,99.99
2018-07-23T04:45:07.786Z,99.99
2018-07-23T04:46:07.713Z,99.99
2018-07-23T04:47:07.641Z,99.99
2018-07-23T04:48:07.580Z,99.99
2018-07-23T04:49:07.500Z,99.99
2018-07-23T04:50:07.429Z,99.99
2018-07-23T04:51:07.360Z,99.99
2018-07-23T04:52:07.326Z,99.99
2018-07-23T04:53:07.215Z,99.99
2018-07-23T04:54:07.143Z,99.99
2018-07-23T04:55:07.111Z,99.99
2018-07-23T04:56:07.001Z,99.99
2018-07-23T04:57:06.933Z,99.99
2018-07-23T04:58:06.854Z,99.99
2018-07-23T04:59:06.783Z,99.99
2018-07-23T05:00:06.717Z,99.99
2018-07-23T05:01:06.650Z,99.99
2018-07-23T05:02:06.573Z,99.99
2018-07-23T05:03:06.501Z,99.99
2018-07-23T05:04:06.426Z,99.99
2018-07-23T05:05:06.358Z,99.99
2018-07-23T05:06:06.290Z,99.99
2018-07-23T05:07:06.216Z,99.99
2018-07-23T05:08:06.149Z,99.99
2018-07-23T05:09:06.069Z,99.99
2018-07-23T05:10:06.003Z,99.99
2018-07-23T05:11:05.927Z,99.99
2018-07-23T05:12:05.867Z,99.99
2018-07-23T05:13:05.788Z,99.99
2018-07-23T05:14:05.724Z,99.99
2018-07-23T05:15:05.648Z,99.99
2018-07-23T05:16:05.642Z,99.99
2018-07-23T05:17:05.499Z,99.99
2018-07-23T05:18:05.429Z,99.99
2018-07-23T05:19:05.393Z,99.99
2018-07-23T05:20:05.286Z,99.99
2018-07-23T05:21:05.265Z,99.99
2018-07-23T05:22:05.148Z,99.99
2018-07-23T05:23:05.076Z,99.99
2018-07-23T05:24:05.004Z,99.99
2018-07-23T05:25:04.936Z,99.99
2018-07-23T05:26:04.880Z,99.99
2018-07-23T05:27:04.797Z,99.99
2018-07-23T05:28:04.718Z,99.99
2018-07-23T05:29:04.648Z,99.99
2018-07-23T05:30:04.591Z,99.99
2018-07-23T05:31:04.515Z,99.99
2018-07-23T05:32:04.432Z,99.99
2018-07-23T05:33:04.361Z,99.99
2018-07-23T05:34:04.289Z,99.99
2018-07-23T05:35:04.253Z,99.99
2018-07-23T05:36:04.147Z,99.99
2018-07-23T05:37:04.084Z,99.99
2018-07-23T05:38:04.060Z,99.99
2018-07-23T05:39:03.937Z,99.99
2018-07-23T05:40:03.862Z,99.99
2018-07-23T05:41:03.792Z,99.99
2018-07-23T05:42:03.731Z,99.99
2018-07-23T05:43:03.650Z,99.99
2018-07-23T05:44:03.578Z,99.99
2018-07-23T05:45:03.509Z,99.99
2018-07-23T05:46:03.447Z,99.99
2018-07-23T05:47:03.372Z,99.99
2018-07-23T05:48:03.295Z,99.99
2018-07-23T05:49:03.231Z,99.99
2018-07-23T05:50:03.162Z,99.99
2018-07-23T05:51:03.085Z,99.99
2018-07-23T05:52:03.020Z,99.99
2018-07-23T05:53:02.949Z,99.99
2018-07-23T05:54:02.882Z,99.99
2018-07-23T05:55:02.803Z,99.99
2018-07-23T05:56:02.735Z,99.99
2018-07-23T05:57:02.654Z,99.99
2018-07-23T05:58:02.601Z,99.99
2018-07-23T05:59:02.513Z,99.99
2018-07-23T06:00:02.461Z,99.99
2018-07-23T06:01:02.376Z,99.99
2018-07-23T06:02:02.314Z,99.99
2018-07-23T06:03:02.236Z,99.99
2018-07-23T06:04:02.168Z,99.99
2018-07-23T06:05:02.096Z,99.99
2018-07-23T06:06:02.030Z,99.99
2018-07-23T06:07:02.143Z,99.99
2018-07-23T06:08:01.891Z,99.99
2018-07-23T06:09:01.809Z,99.99
2018-07-23T06:10:01.753Z,99.99
2018-07-23T06:11:01.671Z,99.99
2018-07-23T06:12:01.608Z,99.99
2018-07-23T06:13:01.535Z,99.99
2018-07-23T06:14:01.464Z,99.99
2018-07-23T06:15:01.407Z,99.99
2018-07-23T06:16:01.849Z,99.99
2018-07-23T06:17:01.253Z,99.99
2018-07-23T06:18:01.186Z,99.99
2018-07-23T06:19:01.161Z,99.69
2018-07-23T06:20:01.051Z,99.88
2018-07-23T06:21:00.976Z,99.99
2018-07-23T06:22:00.902Z,99.99
2018-07-23T06:23:00.830Z,99.99
2018-07-23T06:24:00.766Z,99.99
2018-07-23T06:25:00.693Z,99.59
2018-07-23T06:26:00.626Z,99.30
2018-07-23T06:27:00.556Z,99.30
2018-07-23T06:28:00.488Z,98.44
2018-07-23T06:29:00.412Z,97.81
2018-07-23T06:30:00.363Z,97.62
2018-07-23T06:31:00.272Z,98.29
2018-07-23T06:32:00.202Z,96.94
2018-07-23T06:33:00.139Z,96.89
2018-07-23T06:34:00.066Z,96.94
2018-07-23T06:34:59.998Z,97.52
2018-07-23T06:35:59.925Z,97.62
2018-07-23T06:36:59.855Z,98.00
2018-07-23T06:37:59.792Z,98.10
2018-07-23T06:38:59.728Z,96.08
2018-07-23T06:39:59.645Z,96.75
2018-07-23T06:40:59.578Z,94.92
2018-07-23T06:41:59.508Z,94.64
2018-07-23T06:42:59.440Z,94.39
2018-07-23T06:43:59.371Z,95.94
2018-07-23T06:44:59.307Z,94.49
2018-07-23T06:45:59.225Z,94.78
2018-07-23T06:46:59.160Z,94.68
2018-07-23T06:47:59.100Z,94.39
2018-07-23T06:48:59.024Z,95.55
2018-07-23T06:49:58.952Z,95.07
2018-07-23T06:50:58.887Z,94.49
2018-07-23T06:51:58.813Z,94.29
2018-07-23T06:52:58.746Z,93.52
2018-07-23T06:53:58.727Z,93.91
2018-07-23T06:54:58.612Z,95.11
2018-07-23T06:55:58.534Z,93.66
2018-07-23T06:56:58.476Z,93.76
2018-07-23T06:57:58.399Z,93.38
2018-07-23T06:58:58.331Z,94.06
2018-07-23T06:59:58.262Z,92.90
2018-07-23T07:00:58.191Z,91.45
2018-07-23T07:01:58.121Z,91.11
2018-07-23T07:02:58.058Z,93.66
2018-07-23T07:03:57.980Z,93.52
2018-07-23T07:04:57.919Z,93.66
2018-07-23T07:05:57.849Z,91.30
2018-07-23T07:06:57.836Z,91.20
2018-07-23T07:07:57.710Z,90.34
2018-07-23T07:08:57.647Z,90.15
2018-07-23T07:09:57.567Z,88.99
2018-07-23T07:10:57.554Z,90.53
2018-07-23T07:11:57.439Z,90.24
2018-07-23T07:12:57.373Z,88.51
2018-07-23T07:13:57.292Z,87.16
2018-07-23T07:14:57.238Z,87.26
2018-07-23T07:15:57.154Z,86.87
2018-07-23T07:16:57.080Z,87.26
2018-07-23T07:17:57.017Z,86.96
2018-07-23T07:18:56.953Z,86.24
2018-07-23T07:19:56.966Z,85.56
2018-07-23T07:20:56.812Z,84.59
2018-07-23T07:21:56.745Z,83.25
2018-07-23T07:22:56.674Z,82.61
2018-07-23T07:23:56.609Z,83.29
2018-07-23T07:24:56.541Z,84.93
2018-07-23T07:25:56.467Z,84.74
2018-07-23T07:26:56.409Z,84.06
2018-07-23T07:27:56.334Z,84.44
2018-07-23T07:28:56.264Z,82.13
2018-07-23T07:29:56.196Z,82.23
2018-07-23T07:30:56.134Z,81.68
2018-07-23T07:31:56.060Z,82.07
2018-07-23T07:32:55.997Z,82.26
2018-07-23T07:33:55.929Z,81.98
2018-07-23T07:34:55.862Z,80.86
2018-07-23T07:35:55.788Z,79.31
2018-07-23T07:36:55.716Z,79.50
2018-07-23T07:37:55.679Z,79.70
2018-07-23T07:38:55.584Z,78.64
2018-07-23T07:39:55.512Z,77.09
2018-07-23T07:40:55.447Z,77.03
2018-07-23T07:41:55.379Z,75.87
2018-07-23T07:42:55.311Z,75.43
2018-07-23T07:43:55.241Z,73.46
2018-07-23T07:44:55.177Z,74.81
2018-07-23T07:45:55.142Z,74.23
2018-07-23T07:46:55.041Z,74.75
2018-07-23T07:47:54.977Z,74.27
2018-07-23T07:48:54.910Z,74.07
2018-07-23T07:49:54.841Z,74.75
2018-07-23T07:50:54.776Z,75.46
2018-07-23T07:51:54.704Z,74.07
2018-07-23T07:52:54.637Z,73.10
2018-07-23T07:53:54.598Z,73.01
2018-07-23T07:54:54.511Z,73.20
2018-07-23T07:55:54.441Z,73.49
2018-07-23T07:56:54.375Z,73.68
2018-07-23T07:57:54.307Z,73.59
2018-07-23T07:58:54.881Z,74.36
2018-07-23T07:59:54.175Z,74.27
2018-07-23T08:00:54.106Z,74.27
2018-07-23T08:01:54.040Z,75.27
2018-07-23T08:02:53.986Z,75.75
2018-07-23T08:03:53.903Z,75.85
2018-07-23T08:04:53.839Z,75.56
2018-07-23T08:05:53.771Z,74.11
2018-07-23T08:06:53.703Z,72.17
2018-07-23T08:07:53.647Z,72.56
2018-07-23T08:08:53.570Z,72.27
2018-07-23T08:09:53.503Z,71.88
2018-07-23T08:10:53.445Z,71.78
2018-07-23T08:11:53.372Z,71.50
2018-07-23T08:12:53.308Z,70.43
2018-07-23T08:13:53.236Z,70.62
2018-07-23T08:14:53.179Z,70.92
2018-07-23T08:15:53.149Z,70.43
2018-07-23T08:16:53.037Z,69.66
2018-07-23T08:17:53.033Z,69.95
2018-07-23T08:18:52.908Z,69.95
2018-07-23T08:19:52.833Z,68.98
2018-07-23T08:20:52.786Z,68.53
2018-07-23T08:21:52.711Z,68.63
2018-07-23T08:22:52.644Z,69.01
2018-07-23T08:23:52.606Z,70.56
2018-07-23T08:24:52.505Z,69.11
2018-07-23T08:25:52.442Z,68.37
2018-07-23T08:26:52.406Z,68.56
2018-07-23T08:27:52.355Z,68.66
2018-07-23T08:28:52.250Z,68.56
2018-07-23T08:29:52.179Z,68.85
2018-07-23T08:30:52.129Z,66.92
2018-07-23T08:31:52.117Z,68.08
2018-07-23T08:32:51.987Z,63.53
2018-07-23T08:33:51.910Z,63.82
2018-07-23T08:34:51.857Z,64.40
2018-07-23T08:35:51.786Z,64.59
2018-07-23T08:36:51.713Z,64.69
2018-07-23T08:37:51.660Z,64.04
2018-07-23T08:38:51.587Z,63.85
2018-07-23T08:39:51.526Z,64.53
2018-07-23T08:40:51.536Z,64.75
2018-07-23T08:41:51.394Z,64.65
2018-07-23T08:42:51.337Z,63.59
2018-07-23T08:43:51.257Z,65.05
2018-07-23T08:44:51.230Z,64.75
2018-07-23T08:45:51.136Z,65.53
2018-07-23T08:46:51.056Z,63.98
2018-07-23T08:47:50.994Z,63.78
2018-07-23T08:48:50.925Z,64.75
2018-07-23T08:49:50.866Z,62.49
2018-07-23T08:50:50.806Z,62.43
2018-07-23T08:51:50.740Z,62.43
2018-07-23T08:52:50.675Z,61.82
2018-07-23T08:53:50.607Z,63.95
2018-07-23T08:54:50.549Z,65.40
2018-07-23T08:55:50.472Z,63.56
2018-07-23T08:56:50.411Z,63.37
2018-07-23T08:57:50.350Z,63.01
2018-07-23T08:58:50.277Z,63.69
2018-07-23T08:59:50.220Z,62.62
2018-07-23T09:00:50.153Z,60.10
2018-07-23T09:01:50.083Z,61.82
2018-07-23T09:02:50.051Z,62.75
2018-07-23T09:03:49.951Z,63.72
2018-07-23T09:04:49.892Z,64.72
2018-07-23T09:05:49.823Z,64.24
2018-07-23T09:06:49.768Z,64.47
2018-07-23T09:07:49.701Z,62.62
2018-07-23T09:08:49.715Z,62.52
2018-07-23T09:09:49.566Z,61.98
2018-07-23T09:10:49.500Z,62.04
2018-07-23T09:11:49.449Z,61.65
2018-07-23T09:12:49.369Z,61.58
2018-07-23T09:13:49.309Z,61.88
2018-07-23T09:14:49.254Z,60.61
2018-07-23T09:15:49.176Z,60.52
2018-07-23T09:16:49.112Z,61.58
2018-07-23T09:17:49.052Z,61.75
2018-07-23T09:18:48.980Z,62.23
2018-07-23T09:19:48.920Z,62.62
2018-07-23T09:20:48.868Z,61.94
2018-07-23T09:21:48.793Z,61.94
2018-07-23T09:22:48.740Z,61.29
2018-07-23T09:23:48.672Z,60.06
2018-07-23T09:24:48.610Z,58.25
2018-07-23T09:25:48.538Z,57.96
2018-07-23T09:26:48.477Z,57.33
2018-07-23T09:27:48.420Z,55.93
2018-07-23T09:28:48.352Z,52.84
2018-07-23T09:29:48.291Z,52.84
2018-07-23T09:30:48.234Z,52.67
2018-07-23T09:31:48.163Z,50.95
2018-07-23T09:32:48.105Z,50.97
2018-07-23T09:33:48.051Z,49.83
2018-07-23T09:34:47.992Z,48.78
2018-07-23T09:35:47.923Z,47.83
2018-07-23T09:36:47.863Z,47.56
2018-07-23T09:37:47.807Z,46.82
2018-07-23T09:38:47.742Z,45.86
2018-07-23T09:39:47.685Z,44.81
2018-07-23T09:40:47.631Z,44.71
2018-07-23T09:41:47.570Z,43.27
2018-07-23T09:42:47.510Z,43.09
2018-07-23T09:43:47.454Z,43.66
2018-07-23T09:44:47.399Z,44.16
2018-07-23T09:45:47.337Z,45.80
2018-07-23T09:46:47.282Z,48.22
2018-07-23T09:47:47.233Z,48.56
2018-07-23T09:48:47.166Z,48.83
2018-07-23T09:49:47.109Z,50.24
2018-07-23T09:50:47.052Z,50.60
2018-07-23T09:51:46.993Z,52.50
2018-07-23T09:52:46.985Z,54.13
2018-07-23T09:53:46.886Z,53.64
2018-07-23T09:54:46.824Z,52.19
2018-07-23T09:55:46.757Z,49.15
2018-07-23T09:56:46.703Z,46.83
2018-07-23T09:57:46.644Z,44.74
2018-07-23T09:58:46.586Z,43.71
2018-07-23T09:59:46.520Z,44.34
2018-07-23T10:00:46.466Z,46.44
2018-07-23T10:01:46.403Z,47.36
2018-07-23T10:02:46.351Z,48.61
2018-07-23T10:03:46.290Z,50.02
2018-07-23T10:04:46.233Z,50.99
2018-07-23T10:05:46.177Z,50.87
2018-07-23T10:06:46.115Z,51.72
2018-07-23T10:07:46.056Z,51.77
2018-07-23T10:08:46.012Z,51.67
2018-07-23T10:09:45.933Z,53.08
2018-07-23T10:10:45.878Z,55.22
2018-07-23T10:11:45.825Z,54.13
2018-07-23T10:12:45.776Z,53.74
2018-07-23T10:13:45.693Z,54.32
2018-07-23T10:14:45.636Z,53.74
2018-07-23T10:15:45.576Z,51.39
2018-07-23T10:16:45.506Z,49.32
2018-07-23T10:17:45.454Z,48.73
2018-07-23T10:18:45.393Z,48.10
2018-07-23T10:19:45.348Z,45.78
2018-07-23T10:20:45.316Z,45.41
2018-07-23T10:21:45.210Z,44.34
2018-07-23T10:22:45.144Z,44.45
2018-07-23T10:23:45.093Z,43.71
2018-07-23T10:24:45.029Z,42.52
2018-07-23T10:25:44.969Z,45.00
2018-07-23T10:26:44.913Z,45.87
2018-07-23T10:27:44.852Z,46.44
2018-07-23T10:28:44.791Z,46.73
2018-07-23T10:29:44.736Z,46.75
2018-07-23T10:30:44.689Z,45.41
2018-07-23T10:31:44.622Z,46.66
2018-07-23T10:32:44.560Z,45.62
2018-07-23T10:33:44.506Z,43.10
2018-07-23T10:34:44.453Z,43.57
2018-07-23T10:35:44.393Z,44.35
2018-07-23T10:36:44.341Z,44.45
2018-07-23T10:37:44.267Z,44.26
2018-07-23T10:38:44.242Z,44.28
2018-07-23T10:39:44.185Z,43.89
2018-07-23T10:40:44.090Z,43.62
2018-07-23T10:41:44.029Z,43.15
2018-07-23T10:42:43.974Z,41.99
2018-07-23T10:43:43.920Z,42.44
2018-07-23T10:44:43.854Z,43.01
2018-07-23T10:45:43.795Z,44.35
2018-07-23T10:46:43.742Z,45.02
2018-07-23T10:47:43.676Z,44.60
2018-07-23T10:48:43.626Z,45.92
2018-07-23T10:49:43.562Z,48.07
2018-07-23T10:50:43.508Z,47.73
2018-07-23T10:51:43.447Z,48.71
2018-07-23T10:52:43.386Z,49.19
2018-07-23T10:53:43.322Z,48.24
2018-07-23T10:54:43.266Z,48.44
2018-07-23T10:55:43.205Z,48.02
2018-07-23T10:56:43.146Z,48.54
2018-07-23T10:57:43.088Z,48.41
2018-07-23T10:58:43.025Z,48.90
2018-07-23T10:59:42.966Z,49.00
2018-07-23T11:00:42.914Z,49.51
2018-07-23T11:01:42.843Z,49.58
2018-07-23T11:02:42.799Z,50.36
2018-07-23T11:03:42.732Z,49.49
2018-07-23T11:04:42.687Z,49.46
2018-07-23T11:05:42.601Z,49.00
2018-07-23T11:06:42.544Z,50.16
2018-07-23T11:07:42.483Z,49.22
2018-07-23T11:08:42.419Z,48.54
2018-07-23T11:09:42.374Z,47.07
2018-07-23T11:10:42.301Z,48.22
2018-07-23T11:11:42.243Z,49.66
2018-07-23T11:12:42.245Z,50.04
2018-07-23T11:13:42.115Z,48.68
2018-07-23T11:14:42.056Z,49.76
2018-07-23T11:15:42.003Z,49.85
2018-07-23T11:16:41.921Z,49.76
2018-07-23T11:17:41.870Z,49.92
2018-07-23T11:18:41.805Z,49.44
2018-07-23T11:19:41.734Z,50.90
2018-07-23T11:20:41.686Z,50.14
2018-07-23T11:21:41.620Z,51.02
2018-07-23T11:22:41.581Z,50.16
2018-07-23T11:23:41.493Z,49.39
2018-07-23T11:24:45.541Z,48.07
2018-07-23T11:25:41.366Z,47.39
2018-07-23T11:26:41.375Z,46.92
2018-07-23T11:27:41.249Z,46.14
2018-07-23T11:28:41.183Z,45.36
2018-07-23T11:29:41.159Z,46.24
2018-07-23T11:30:41.065Z,46.61
2018-07-23T11:31:41.012Z,47.29
2018-07-23T11:32:40.938Z,46.90
2018-07-23T11:33:40.874Z,47.07
2018-07-23T11:34:40.815Z,49.02
2018-07-23T11:35:40.752Z,47.56
2018-07-23T11:36:40.782Z,48.14
2018-07-23T11:37:40.651Z,48.22
2018-07-23T11:38:40.570Z,47.90
2018-07-23T11:39:40.511Z,48.12
2018-07-23T11:40:40.447Z,48.29
2018-07-23T11:41:40.421Z,48.49
2018-07-23T11:42:40.364Z,48.00
2018-07-23T11:43:40.258Z,48.19
2018-07-23T11:44:40.203Z,48.61
2018-07-23T11:45:40.143Z,47.83
2018-07-23T11:46:40.074Z,49.00
2018-07-23T11:47:40.020Z,48.80
2018-07-23T11:48:39.967Z,48.73
2018-07-23T11:49:39.888Z,48.93
2018-07-23T11:50:39.837Z,47.19
2018-07-23T11:51:39.768Z,46.41
2018-07-23T11:52:39.701Z,46.97
2018-07-23T11:53:39.649Z,47.27
2018-07-23T11:54:39.579Z,47.46
2018-07-23T11:55:39.509Z,47.39
2018-07-23T11:56:39.477Z,46.61
2018-07-23T11:57:39.397Z,45.36
2018-07-23T11:58:39.326Z,44.97
2018-07-23T11:59:39.281Z,46.02
2018-07-23T12:00:39.204Z,46.34
2018-07-23T12:01:39.139Z,46.83
2018-07-23T12:02:39.082Z,45.64
2018-07-23T12:03:39.030Z,45.83
2018-07-23T12:04:39.074Z,45.92
2018-07-23T12:05:38.892Z,45.15
2018-07-23T12:06:38.834Z,45.51
2018-07-23T12:07:38.768Z,46.00
2018-07-23T12:08:38.699Z,46.31
2018-07-23T12:09:38.639Z,45.34
2018-07-23T12:10:38.589Z,45.71
2018-07-23T12:11:38.513Z,45.15
2018-07-23T12:12:38.453Z,45.73
2018-07-23T12:13:38.393Z,44.78
2018-07-23T12:14:38.331Z,45.17
2018-07-23T12:15:38.267Z,44.87
2018-07-23T12:16:38.206Z,44.19
2018-07-23T12:17:38.177Z,43.90
2018-07-23T12:18:38.082Z,44.97
2018-07-23T12:19:38.016Z,45.64
2018-07-23T12:20:37.959Z,46.61
2018-07-23T12:21:37.896Z,45.92
2018-07-23T12:22:37.824Z,47.00
2018-07-23T12:23:37.775Z,47.17
2018-07-23T12:24:37.712Z,47.07
2018-07-23T12:25:37.650Z,46.97
2018-07-23T12:26:37.581Z,47.27
2018-07-23T12:27:37.521Z,47.75
2018-07-23T12:28:37.458Z,47.34
2018-07-23T12:29:37.386Z,46.47
2018-07-23T12:30:37.338Z,47.25
2018-07-23T12:31:37.271Z,48.02
2018-07-23T12:32:37.206Z,48.51
2018-07-23T12:33:37.156Z,47.73
2018-07-23T12:34:37.103Z,47.44
2018-07-23T12:35:37.025Z,47.83
2018-07-23T12:36:36.963Z,47.44
2018-07-23T12:37:36.903Z,48.02
2018-07-23T12:38:36.833Z,47.44
2018-07-23T12:39:36.813Z,47.44
2018-07-23T12:40:36.706Z,47.22
2018-07-23T12:41:36.642Z,47.13
2018-07-23T12:42:36.588Z,46.64
2018-07-23T12:43:36.513Z,45.88
2018-07-23T12:44:36.455Z,46.37
2018-07-23T12:45:36.409Z,46.37
2018-07-23T12:46:36.328Z,45.88
2018-07-23T12:47:36.267Z,46.66
2018-07-23T12:48:36.204Z,46.59
2018-07-23T12:49:36.137Z,46.78
2018-07-23T12:50:36.078Z,46.56
2018-07-23T12:51:36.008Z,46.88